createdAt,value
2018-02-23T00:02:08.825Z,32.17
2018-02-23T00:04:36.964Z,32.30
2018-02-23T00:07:05.076Z,27.53
2018-02-23T00:09:33.209Z,27.93
2018-02-23T00:12:01.341Z,28.90
2018-02-23T00:14:29.478Z,26.90
2018-02-23T00:16:57.598Z,27.27
2018-02-23T00:19:25.728Z,30.07
2018-02-23T00:21:53.853Z,26.97
2018-02-23T00:24:21.972Z,26.87
2018-02-23T00:26:50.097Z,29.23
2018-02-23T00:29:18.422Z,27.73
2018-02-23T00:31:46.545Z,23.97
2018-02-23T00:34:14.675Z,29.10
2018-02-23T00:36:42.819Z,30.30
2018-02-23T00:39:10.933Z,28.30
2018-02-23T00:41:39.067Z,30.83
2018-02-23T00:44:07.183Z,27.37
2018-02-23T00:46:35.319Z,27.60
2018-02-23T00:49:03.445Z,29.77
2018-02-23T00:51:31.634Z,29.23
2018-02-23T00:53:59.740Z,30.90
2018-02-23T00:56:31.507Z,31.10
2018-02-23T00:58:59.615Z,28.80
2018-02-23T01:01:27.738Z,30.03
2018-02-23T01:03:55.864Z,29.13
2018-02-23T01:06:23.989Z,30.40
2018-02-23T01:08:52.106Z,30.37
2018-02-23T01:11:20.226Z,33.37
2018-02-23T01:13:48.364Z,27.30
2018-02-23T01:16:16.468Z,31.80
2018-02-23T01:18:44.597Z,30.10
2018-02-23T01:21:12.717Z,27.13
2018-02-23T01:23:40.835Z,29.13
2018-02-23T01:26:08.989Z,28.17
2018-02-23T01:28:37.122Z,27.00
2018-02-23T01:31:05.242Z,29.30
2018-02-23T01:33:33.371Z,29.37
2018-02-23T01:36:01.491Z,26.67
2018-02-23T01:38:29.649Z,30.13
2018-02-23T01:40:57.762Z,27.67
2018-02-23T01:43:25.884Z,29.00
2018-02-23T01:45:54.007Z,27.53
2018-02-23T01:48:22.146Z,28.47
2018-02-23T01:51:01.079Z,26.50
2018-02-23T01:53:29.191Z,28.87
2018-02-23T01:55:57.868Z,24.27
2018-02-23T01:58:25.990Z,26.90
2018-02-23T02:00:54.447Z,27.30
2018-02-23T02:03:22.566Z,27.83
2018-02-23T02:05:51.597Z,27.10
2018-02-23T02:08:19.721Z,30.23
2018-02-23T02:10:47.998Z,29.53
2018-02-23T02:13:16.129Z,30.97
2018-02-23T02:15:44.241Z,28.03
2018-02-23T02:18:12.356Z,31.20
2018-02-23T02:20:40.456Z,26.90
2018-02-23T02:23:08.579Z,29.17
2018-02-23T02:25:36.719Z,29.80
2018-02-23T02:28:04.820Z,28.60
2018-02-23T02:30:32.955Z,32.23
2018-02-23T02:33:01.124Z,29.17
2018-02-23T02:35:29.258Z,32.90
2018-02-23T02:37:57.382Z,31.63
2018-02-23T02:40:25.485Z,30.43
2018-02-23T02:42:53.613Z,34.70
2018-02-23T02:45:21.735Z,33.80
2018-02-23T02:47:49.871Z,31.63
2018-02-23T02:50:18.000Z,30.07
2018-02-23T02:52:46.122Z,31.80
2018-02-23T02:55:14.248Z,36.60
2018-02-23T02:57:42.352Z,30.83
2018-02-23T03:00:10.523Z,29.83
2018-02-23T03:02:38.624Z,31.07
2018-02-23T03:05:06.731Z,34.40
2018-02-23T03:07:34.862Z,29.97
2018-02-23T03:10:03.001Z,30.13
2018-02-23T03:12:31.116Z,32.90
2018-02-23T03:14:59.232Z,32.53
2018-02-23T03:17:27.396Z,33.93
2018-02-23T03:19:55.498Z,29.33
2018-02-23T03:22:23.614Z,30.50
2018-02-23T03:24:51.747Z,28.70
2018-02-23T03:27:19.850Z,31.27
2018-02-23T03:29:47.972Z,31.03
2018-02-23T03:32:16.106Z,30.80
2018-02-23T03:34:44.234Z,30.07
2018-02-23T03:37:12.340Z,29.67
2018-02-23T03:39:40.473Z,32.20
2018-02-23T03:42:08.579Z,29.40
2018-02-23T03:44:36.717Z,31.63
2018-02-23T03:47:04.846Z,34.13
2018-02-23T03:49:33.000Z,30.73
2018-02-23T03:52:01.075Z,31.60
2018-02-23T03:54:29.183Z,33.63
2018-02-23T03:56:57.322Z,30.50
2018-02-23T03:59:25.418Z,29.47
2018-02-23T04:01:53.558Z,31.60
2018-02-23T04:04:21.684Z,33.50
2018-02-23T04:06:49.806Z,33.23
2018-02-23T04:09:17.938Z,31.53
2018-02-23T04:11:46.074Z,31.27
2018-02-23T04:14:14.214Z,33.83
2018-02-23T04:16:42.301Z,35.30
2018-02-23T04:19:10.434Z,36.23
2018-02-23T04:21:38.564Z,33.63
2018-02-23T04:24:06.672Z,34.27
2018-02-23T04:26:34.778Z,36.47
2018-02-23T04:29:02.937Z,34.13
2018-02-23T04:31:31.062Z,37.30
2018-02-23T04:33:59.193Z,34.53
2018-02-23T04:36:27.331Z,33.77
2018-02-23T04:38:55.438Z,36.27
2018-02-23T04:41:23.561Z,38.00
2018-02-23T04:43:51.701Z,35.50
2018-02-23T04:46:20.481Z,38.43
2018-02-23T04:48:48.632Z,33.63
2018-02-23T04:51:16.764Z,39.83
2018-02-23T04:53:44.889Z,42.93
2018-02-23T04:56:13.025Z,39.60
2018-02-23T04:58:41.144Z,45.40
2018-02-23T05:01:09.267Z,40.43
2018-02-23T05:03:37.371Z,41.33
2018-02-23T05:06:05.529Z,39.20
2018-02-23T05:08:33.641Z,44.27
2018-02-23T05:11:01.769Z,45.37
2018-02-23T05:13:29.900Z,43.77
2018-02-23T05:15:58.042Z,43.70
2018-02-23T05:18:26.202Z,48.67
2018-02-23T05:20:54.889Z,45.60
2018-02-23T05:23:23.033Z,45.27
2018-02-23T05:25:51.155Z,42.33
2018-02-23T05:28:19.251Z,48.97
2018-02-23T05:30:47.384Z,46.10
2018-02-23T05:33:15.505Z,49.20
2018-02-23T05:35:43.635Z,44.43
2018-02-23T05:38:11.753Z,49.30
2018-02-23T05:40:39.869Z,45.83
2018-02-23T05:43:08.006Z,47.83
2018-02-23T05:45:36.139Z,41.80
2018-02-23T05:48:04.256Z,45.07
2018-02-23T05:50:32.363Z,46.97
2018-02-23T05:53:00.502Z,44.27
2018-02-23T05:55:28.651Z,46.23
2018-02-23T05:57:56.773Z,47.63
2018-02-23T06:00:24.918Z,45.57
2018-02-23T06:02:53.021Z,46.13
2018-02-23T06:05:21.141Z,42.27
2018-02-23T06:07:49.263Z,48.23
2018-02-23T06:10:17.368Z,44.97
2018-02-23T06:12:45.495Z,43.40
2018-02-23T06:15:13.618Z,49.07
2018-02-23T06:17:47.292Z,44.57
2018-02-23T06:20:15.630Z,43.60
2018-02-23T06:22:43.755Z,46.73
2018-02-23T06:25:11.871Z,45.80
2018-02-23T06:27:40.020Z,45.07
2018-02-23T06:30:08.178Z,45.27
2018-02-23T06:32:36.369Z,45.77
2018-02-23T06:35:04.760Z,44.73
2018-02-23T06:37:32.877Z,42.50
2018-02-23T06:40:01.003Z,41.03
2018-02-23T06:42:29.130Z,42.63
2018-02-23T06:44:57.259Z,36.87
2018-02-23T06:47:25.399Z,40.30
2018-02-23T06:49:53.521Z,40.30
2018-02-23T06:52:21.642Z,35.73
2018-02-23T06:54:49.753Z,35.87
2018-02-23T06:57:17.902Z,32.30
2018-02-23T06:59:46.011Z,37.57
2018-02-23T07:02:14.132Z,35.57
2018-02-23T07:04:42.316Z,29.57
2018-02-23T07:07:10.387Z,35.50
2018-02-23T07:09:38.541Z,31.57
2018-02-23T07:12:06.652Z,30.80
2018-02-23T07:14:34.773Z,23.87
2018-02-23T07:17:02.977Z,31.23
2018-02-23T07:19:31.100Z,26.60
2018-02-23T07:21:59.234Z,28.50
2018-02-23T07:24:27.362Z,28.33
2018-02-23T07:26:55.499Z,26.67
2018-02-23T07:29:23.654Z,26.00
2018-02-23T07:31:51.821Z,27.87
2018-02-23T07:34:19.931Z,21.47
2018-02-23T07:36:48.066Z,24.33
2018-02-23T07:39:16.188Z,21.30
2018-02-23T07:41:44.305Z,21.30
2018-02-23T07:44:12.426Z,21.17
2018-02-23T07:46:40.551Z,20.67
2018-02-23T07:49:08.670Z,19.60
2018-02-23T07:51:36.801Z,20.67
2018-02-23T07:54:04.913Z,22.30
2018-02-23T07:56:33.033Z,21.13
2018-02-23T07:59:01.157Z,18.57
2018-02-23T08:01:29.292Z,16.10
2018-02-23T08:03:57.410Z,17.30
2018-02-23T08:06:25.635Z,18.67
2018-02-23T08:08:53.743Z,12.80
2018-02-23T08:11:21.877Z,12.40
2018-02-23T08:13:50.022Z,15.47
2018-02-23T08:16:18.138Z,20.70
2018-02-23T08:18:46.253Z,13.13
2018-02-23T08:21:14.378Z,12.00
2018-02-23T08:23:42.496Z,15.70
2018-02-23T08:26:10.595Z,15.70
2018-02-23T08:28:38.713Z,12.13
2018-02-23T08:31:06.835Z,13.40
2018-02-23T08:33:34.974Z,13.13
2018-02-23T08:36:03.118Z,10.00
2018-02-23T08:38:31.253Z,15.10
2018-02-23T08:40:59.370Z,12.30
2018-02-23T08:43:27.503Z,14.67
2018-02-23T08:45:55.641Z,10.70
2018-02-23T08:48:23.743Z,16.07
2018-02-23T08:50:51.855Z,13.90
2018-02-23T08:53:20.293Z,13.47
2018-02-23T08:55:48.428Z,15.23
2018-02-23T08:58:16.536Z,15.47
2018-02-23T09:00:48.753Z,12.10
2018-02-23T09:03:17.727Z,11.93
2018-02-23T09:05:45.838Z,14.30
2018-02-23T09:08:13.974Z,19.00
2018-02-23T09:10:42.084Z,17.60
2018-02-23T09:13:10.200Z,12.10
2018-02-23T09:15:38.334Z,12.50
2018-02-23T09:18:06.602Z,14.03
2018-02-23T09:20:34.571Z,17.37
2018-02-23T09:23:02.697Z,15.80
2018-02-23T09:25:30.792Z,12.23
2018-02-23T09:27:58.908Z,14.03
2018-02-23T09:30:27.029Z,15.00
2018-02-23T09:32:57.089Z,15.00
2018-02-23T09:35:25.214Z,12.13
2018-02-23T09:37:53.340Z,12.30
2018-02-23T09:40:21.471Z,15.17
2018-02-23T09:42:49.615Z,11.47
2018-02-23T09:45:17.744Z,12.97
2018-02-23T09:47:45.839Z,19.10
2018-02-23T09:50:14.048Z,12.63
2018-02-23T09:52:42.101Z,12.80
2018-02-23T09:55:10.221Z,11.67
2018-02-23T09:57:38.326Z,12.00
2018-02-23T10:00:06.446Z,10.97
2018-02-23T10:02:34.574Z,10.87
2018-02-23T10:05:02.699Z,11.87
2018-02-23T10:07:30.797Z,22.70
2018-02-23T10:09:58.944Z,12.30
2018-02-23T10:12:27.063Z,16.37
2018-02-23T10:14:55.276Z,13.10
2018-02-23T10:17:23.397Z,14.00
2018-02-23T10:19:51.533Z,13.80
2018-02-23T10:22:19.655Z,14.80
2018-02-23T10:24:47.765Z,12.07
2018-02-23T10:27:15.948Z,13.40
2018-02-23T10:29:44.055Z,14.00
2018-02-23T10:32:12.190Z,14.67
2018-02-23T10:34:40.331Z,15.10
2018-02-23T10:37:08.435Z,16.03
2018-02-23T10:39:36.569Z,16.43
2018-02-23T10:42:04.694Z,15.83
2018-02-23T10:44:32.816Z,15.33
2018-02-23T10:47:00.985Z,15.17
2018-02-23T10:49:29.107Z,11.30
2018-02-23T10:51:57.240Z,11.83
2018-02-23T10:54:25.347Z,12.50
2018-02-23T10:56:53.440Z,11.90
2018-02-23T10:59:21.579Z,13.30
2018-02-23T11:01:49.707Z,13.90
2018-02-23T11:04:17.855Z,13.73
2018-02-23T11:06:45.973Z,17.97
2018-02-23T11:09:14.083Z,19.67
2018-02-23T11:11:42.210Z,16.80
2018-02-23T11:14:10.336Z,14.70
2018-02-23T11:16:38.492Z,13.77
2018-02-23T11:19:06.600Z,18.93
2018-02-23T11:21:34.735Z,12.93
2018-02-23T11:24:02.841Z,17.73
2018-02-23T11:26:30.959Z,17.17
2018-02-23T11:28:59.111Z,15.00
2018-02-23T11:31:27.228Z,15.00
2018-02-23T11:33:55.363Z,14.67
2018-02-23T11:36:23.493Z,15.00
2018-02-23T11:38:51.636Z,13.83
2018-02-23T11:41:19.723Z,14.97
2018-02-23T11:43:47.854Z,16.50
2018-02-23T11:46:15.991Z,17.43
2018-02-23T11:48:44.143Z,16.47
2018-02-23T11:51:12.287Z,16.93
2018-02-23T11:53:40.417Z,16.13
2018-02-23T11:56:08.557Z,14.63
2018-02-23T11:58:36.692Z,16.17
2018-02-23T12:01:04.786Z,12.90
2018-02-23T12:03:32.910Z,13.20
2018-02-23T12:06:01.025Z,14.07
2018-02-23T12:08:29.154Z,12.00
2018-02-23T12:10:57.290Z,17.50
2018-02-23T12:13:25.416Z,12.70
2018-02-23T12:15:53.549Z,17.13
2018-02-23T12:18:21.677Z,13.13
2018-02-23T12:20:49.958Z,15.57
2018-02-23T12:23:18.105Z,12.63
2018-02-23T12:25:46.234Z,13.00
2018-02-23T12:28:14.359Z,13.27
2018-02-23T12:30:42.593Z,12.17
2018-02-23T12:33:10.713Z,12.57
2018-02-23T12:35:38.823Z,14.47
2018-02-23T12:38:06.944Z,14.80
2018-02-23T12:40:35.058Z,12.80
2018-02-23T12:43:03.178Z,13.47
2018-02-23T12:45:31.309Z,13.13
2018-02-23T12:47:59.442Z,13.43
2018-02-23T12:50:27.587Z,10.80
2018-02-23T12:52:55.711Z,13.73
2018-02-23T12:55:23.891Z,12.07
2018-02-23T12:57:52.007Z,15.53
2018-02-23T13:00:20.130Z,15.03
2018-02-23T13:02:48.250Z,17.70
2018-02-23T13:05:16.387Z,18.03
2018-02-23T13:07:44.502Z,13.03
2018-02-23T13:10:12.672Z,14.60
2018-02-23T13:12:40.776Z,17.03
2018-02-23T13:15:14.575Z,15.47
2018-02-23T13:17:48.648Z,16.17
2018-02-23T13:20:16.768Z,13.73
2018-02-23T13:22:44.875Z,14.73
2018-02-23T13:25:13.005Z,13.73
2018-02-23T13:27:41.135Z,14.07
2018-02-23T13:30:09.250Z,12.83
2018-02-23T13:32:37.413Z,15.97
2018-02-23T13:35:05.540Z,14.00
2018-02-23T13:37:33.705Z,14.10
2018-02-23T13:40:01.862Z,17.57
2018-02-23T13:42:29.986Z,12.97
2018-02-23T13:44:58.259Z,15.23
2018-02-23T13:47:26.351Z,13.87
2018-02-23T13:49:54.474Z,15.10
2018-02-23T13:52:22.603Z,20.00
2018-02-23T13:54:52.651Z,15.50
2018-02-23T13:57:20.767Z,13.93
2018-02-23T13:59:48.908Z,16.93
2018-02-23T14:02:17.061Z,13.97
2018-02-23T14:04:45.195Z,17.37
2018-02-23T14:07:18.784Z,16.27
2018-02-23T14:09:46.899Z,15.17
2018-02-23T14:12:15.025Z,19.63
2018-02-23T14:14:43.145Z,15.67
2018-02-23T14:17:11.305Z,14.50
2018-02-23T14:19:39.459Z,15.83
2018-02-23T14:22:07.579Z,13.70
2018-02-23T14:24:35.703Z,15.37
2018-02-23T14:27:03.900Z,18.27
2018-02-23T14:29:32.061Z,15.33
2018-02-23T14:32:00.168Z,13.17
2018-02-23T14:34:28.286Z,17.83
2018-02-23T14:36:56.411Z,17.03
2018-02-23T14:39:24.561Z,13.13
2018-02-23T14:41:52.655Z,17.87
2018-02-23T14:44:20.780Z,18.67
2018-02-23T14:46:48.935Z,15.33
2018-02-23T14:49:19.981Z,12.93
2018-02-23T14:51:48.096Z,15.63
2018-02-23T14:54:16.251Z,17.53
2018-02-23T14:56:44.370Z,16.80
2018-02-23T14:59:12.487Z,14.53
2018-02-23T15:01:40.624Z,17.57
2018-02-23T15:04:08.725Z,12.83
2018-02-23T15:06:36.835Z,12.83
2018-02-23T15:09:04.986Z,15.10
2018-02-23T15:11:33.118Z,14.53
2018-02-23T15:14:01.249Z,17.53
2018-02-23T15:16:29.362Z,12.63
2018-02-23T15:18:57.506Z,17.03
2018-02-23T15:21:25.616Z,12.87
2018-02-23T15:23:53.823Z,14.37
2018-02-23T15:26:21.942Z,13.90
2018-02-23T15:28:50.094Z,12.57
2018-02-23T15:31:29.869Z,16.00
2018-02-23T15:33:57.981Z,14.20
2018-02-23T15:36:26.082Z,14.13
2018-02-23T15:38:54.223Z,14.57
2018-02-23T15:41:22.365Z,14.57
2018-02-23T15:43:50.458Z,12.90
2018-02-23T15:46:18.579Z,13.50
2018-02-23T15:48:46.716Z,16.63
2018-02-23T15:51:20.306Z,16.97
2018-02-23T15:53:48.451Z,15.77
2018-02-23T15:56:16.596Z,14.00
2018-02-23T15:58:44.691Z,17.90
2018-02-23T16:01:12.797Z,13.50
2018-02-23T16:03:40.915Z,15.07
2018-02-23T16:06:09.049Z,15.53
2018-02-23T16:08:37.172Z,15.47
2018-02-23T16:11:05.303Z,14.37
2018-02-23T16:13:33.463Z,14.17
2018-02-23T16:16:01.594Z,12.93
2018-02-23T16:18:29.703Z,15.23
2018-02-23T16:20:57.859Z,13.47
2018-02-23T16:23:25.995Z,19.33
2018-02-23T16:25:54.114Z,14.63
2018-02-23T16:28:22.256Z,12.93
2018-02-23T16:30:50.399Z,14.90
2018-02-23T16:33:18.511Z,15.67
2018-02-23T16:35:46.637Z,13.03
2018-02-23T16:38:14.747Z,15.17
2018-02-23T16:40:42.867Z,14.57
2018-02-23T16:43:10.999Z,16.23
2018-02-23T16:45:39.132Z,17.10
2018-02-23T16:48:07.253Z,15.87
2018-02-23T16:50:35.371Z,14.30
2018-02-23T16:53:03.495Z,14.10
2018-02-23T16:55:31.650Z,14.60
2018-02-23T16:57:59.781Z,15.37
2018-02-23T17:00:27.924Z,15.57
2018-02-23T17:02:56.060Z,14.20
2018-02-23T17:05:24.163Z,15.50
2018-02-23T17:07:52.272Z,16.40
2018-02-23T17:10:20.397Z,12.43
2018-02-23T17:12:49.430Z,14.40
2018-02-23T17:15:17.542Z,16.10
2018-02-23T17:17:45.644Z,14.73
2018-02-23T17:20:13.782Z,15.67
2018-02-23T17:22:41.909Z,14.37
2018-02-23T17:25:10.037Z,14.67
2018-02-23T17:27:38.151Z,13.43
2018-02-23T17:30:06.260Z,17.57
2018-02-23T17:32:34.368Z,18.80
2018-02-23T17:35:02.497Z,18.13
2018-02-23T17:37:30.620Z,13.13
2018-02-23T17:39:59.627Z,15.33
2018-02-23T17:42:27.768Z,17.20
2018-02-23T17:44:55.907Z,13.53
2018-02-23T17:47:24.042Z,16.63
2018-02-23T17:49:52.168Z,16.40
2018-02-23T17:52:20.286Z,16.50
2018-02-23T17:54:48.418Z,18.13
2018-02-23T17:57:16.511Z,17.90
2018-02-23T17:59:44.623Z,20.27
2018-02-23T18:02:12.758Z,15.47
2018-02-23T18:04:40.864Z,15.93
2018-02-23T18:07:08.994Z,18.07
2018-02-23T18:09:37.116Z,17.87
2018-02-23T18:12:05.245Z,19.00
2018-02-23T18:14:33.386Z,17.13
2018-02-23T18:17:01.508Z,19.47
2018-02-23T18:19:29.712Z,17.40
2018-02-23T18:21:57.850Z,20.00
2018-02-23T18:24:25.962Z,18.70
2018-02-23T18:26:54.065Z,20.43
2018-02-23T18:29:22.199Z,16.90
2018-02-23T18:31:51.238Z,18.03
2018-02-23T18:34:19.379Z,17.33
2018-02-23T18:36:47.504Z,18.97
2018-02-23T18:39:15.630Z,18.33
2018-02-23T18:41:43.751Z,24.33
2018-02-23T18:44:11.876Z,20.67
2018-02-23T18:46:40.001Z,21.77
2018-02-23T18:49:08.184Z,21.17
2018-02-23T18:51:36.269Z,20.47
2018-02-23T18:54:04.376Z,24.83
2018-02-23T18:56:32.555Z,21.73
2018-02-23T18:59:00.666Z,21.30
2018-02-23T19:01:28.805Z,21.73
2018-02-23T19:03:56.933Z,23.03
2018-02-23T19:06:25.061Z,22.17
2018-02-23T19:08:53.196Z,26.07
2018-02-23T19:11:21.316Z,23.20
2018-02-23T19:13:49.429Z,24.33
2018-02-23T19:16:17.565Z,22.70
2018-02-23T19:18:45.680Z,27.23
2018-02-23T19:21:13.786Z,26.33
2018-02-23T19:23:41.920Z,26.80
2018-02-23T19:26:10.042Z,31.20
2018-02-23T19:28:38.162Z,24.43
2018-02-23T19:31:06.276Z,26.23
2018-02-23T19:33:34.461Z,26.23
2018-02-23T19:36:02.593Z,24.77
2018-02-23T19:38:30.726Z,25.83
2018-02-23T19:40:58.861Z,26.57
2018-02-23T19:43:27.001Z,28.37
2018-02-23T19:45:55.103Z,26.37
2018-02-23T19:48:23.219Z,26.80
2018-02-23T19:50:51.546Z,27.43
2018-02-23T19:53:19.660Z,21.87
2018-02-23T19:55:47.783Z,21.83
2018-02-23T19:58:15.930Z,25.23
2018-02-23T20:00:44.031Z,26.63
2018-02-23T20:03:12.309Z,21.90
2018-02-23T20:05:40.493Z,23.60
2018-02-23T20:08:08.624Z,22.67
2018-02-23T20:10:36.719Z,23.07
2018-02-23T20:13:04.865Z,25.83
2018-02-23T20:15:32.990Z,18.73
2018-02-23T20:18:01.122Z,20.37
2018-02-23T20:20:29.258Z,22.47
2018-02-23T20:22:57.369Z,19.77
2018-02-23T20:25:25.531Z,19.53
2018-02-23T20:27:53.694Z,17.83
2018-02-23T20:30:21.788Z,17.80
2018-02-23T20:32:49.919Z,18.50
2018-02-23T20:35:18.041Z,19.63
2018-02-23T20:37:46.151Z,21.70
2018-02-23T20:40:14.277Z,19.30
2018-02-23T20:42:45.693Z,16.80
2018-02-23T20:45:13.854Z,19.43
2018-02-23T20:47:41.965Z,17.17
2018-02-23T20:50:10.120Z,14.67
2018-02-23T20:52:38.228Z,18.83
2018-02-23T20:55:06.366Z,22.27
2018-02-23T20:57:34.505Z,15.13
2018-02-23T21:00:02.905Z,17.63
2018-02-23T21:02:31.033Z,22.47
2018-02-23T21:04:59.158Z,16.27
2018-02-23T21:07:27.296Z,18.50
2018-02-23T21:09:55.447Z,19.70
2018-02-23T21:12:23.690Z,22.90
2018-02-23T21:14:51.785Z,20.60
2018-02-23T21:17:19.889Z,16.33
2018-02-23T21:19:48.057Z,17.43
2018-02-23T21:22:16.174Z,18.37
2018-02-23T21:24:44.337Z,15.60
2018-02-23T21:27:12.439Z,19.50
2018-02-23T21:29:40.565Z,18.23
2018-02-23T21:32:08.684Z,19.77
2018-02-23T21:34:36.810Z,20.37
2018-02-23T21:37:04.940Z,19.07
2018-02-23T21:39:33.044Z,17.17
2018-02-23T21:42:01.166Z,19.70
2018-02-23T21:44:41.024Z,19.03
2018-02-23T21:47:09.188Z,20.43
2018-02-23T21:49:37.288Z,19.07
2018-02-23T21:52:05.417Z,18.07
2018-02-23T21:54:33.523Z,18.43
2018-02-23T21:57:01.663Z,20.07
2018-02-23T21:59:29.768Z,16.40
2018-02-23T22:01:57.913Z,18.73
2018-02-23T22:04:26.102Z,19.27
2018-02-23T22:06:54.218Z,19.27
2018-02-23T22:09:25.757Z,20.13
2018-02-23T22:11:53.873Z,17.50
2018-02-23T22:14:22.007Z,19.07
2018-02-23T22:16:50.161Z,17.37
2018-02-23T22:19:18.234Z,16.60
2018-02-23T22:21:46.357Z,18.87
2018-02-23T22:24:14.464Z,18.23
2018-02-23T22:26:42.722Z,19.43
2018-02-23T22:29:10.835Z,19.90
2018-02-23T22:31:38.955Z,21.30
2018-02-23T22:34:07.077Z,21.23
2018-02-23T22:36:35.249Z,21.33
2018-02-23T22:39:03.347Z,22.00
2018-02-23T22:41:31.489Z,19.43
2018-02-23T22:43:59.648Z,21.93
2018-02-23T22:46:27.787Z,18.40
2018-02-23T22:48:56.313Z,18.03
2018-02-23T22:51:24.439Z,18.50
2018-02-23T22:53:52.562Z,19.17
2018-02-23T22:56:20.901Z,19.93
2018-02-23T22:58:49.063Z,23.70
2018-02-23T23:01:17.190Z,23.40
2018-02-23T23:03:45.319Z,20.30
2018-02-23T23:06:13.632Z,21.80
2018-02-23T23:08:41.708Z,24.43
2018-02-23T23:11:09.852Z,23.10
2018-02-23T23:13:37.978Z,20.73
2018-02-23T23:16:06.084Z,24.03
2018-02-23T23:18:34.247Z,23.03
2018-02-23T23:21:02.337Z,22.40
2018-02-23T23:23:30.464Z,22.50
2018-02-23T23:25:58.586Z,23.00
2018-02-23T23:28:26.715Z,21.20
2018-02-23T23:30:55.739Z,25.43
2018-02-23T23:33:23.859Z,21.33
2018-02-23T23:35:52.000Z,25.77
2018-02-23T23:38:20.107Z,23.23
2018-02-23T23:40:48.334Z,25.77
2018-02-23T23:43:16.470Z,25.37
2018-02-23T23:45:44.602Z,32.33
2018-02-23T23:48:12.729Z,28.77
2018-02-23T23:50:40.845Z,30.13
2018-02-23T23:53:08.958Z,26.20
2018-02-23T23:55:37.174Z,27.17
2018-02-23T23:58:05.308Z,26.67
